sensor_id;sensor_type;location;lat;lon;timestamp;temperature;humidity
19363;DHT22;9817;50.80926400;5.16316200;2023-12-22T00:02:08;9.60;99.90
19363;DHT22;9817;50.80926400;5.16316200;2023-12-22T00:04:33;9.70;99.90
19363;DHT22;9817;50.80926400;5.16316200;2023-12-22T00:06:59;9.60;99.90
19363;DHT22;9817;50.80926400;5.16316200;2023-12-22T00:09:25;9.60;99.90
19363;DHT22;9817;50.80926400;5.16316200;2023-12-22T00:11:50;9.70;99.90
19363;DHT22;9817;50.80926400;5.16316200;2023-12-22T00:14:16;9.60;99.90
19363;DHT22;9817;50.80926400;5.16316200;2023-12-22T00:16:42;9.70;99.90
19363;DHT22;9817;50.80926400;5.16316200;2023-12-22T00:19:08;9.70;99.90
19363;DHT22;9817;50.80926400;5.16316200;2023-12-22T00:21:34;9.80;99.90
19363;DHT22;9817;50.80926400;5.16316200;2023-12-22T00:24:00;9.80;99.90
19363;DHT22;9817;50.80926400;5.16316200;2023-12-22T00:26:25;9.90;99.90
19363;DHT22;9817;50.80926400;5.16316200;2023-12-22T00:28:51;9.90;99.90
19363;DHT22;9817;50.80926400;5.16316200;2023-12-22T00:31:16;9.90;99.90
19363;DHT22;9817;50.80926400;5.16316200;2023-12-22T00:33:42;9.90;99.90
19363;DHT22;9817;50.80926400;5.16316200;2023-12-22T00:36:09;9.80;99.90
19363;DHT22;9817;50.80926400;5.16316200;2023-12-22T00:38:34;9.80;99.90
19363;DHT22;9817;50.80926400;5.16316200;2023-12-22T00:41:00;9.80;99.90
19363;DHT22;9817;50.80926400;5.16316200;2023-12-22T00:43:26;9.70;99.90
19363;DHT22;9817;50.80926400;5.16316200;2023-12-22T00:45:51;9.80;99.90
19363;DHT22;9817;50.80926400;5.16316200;2023-12-22T00:48:17;9.90;99.90
19363;DHT22;9817;50.80926400;5.16316200;2023-12-22T00:50:43;9.80;99.90
19363;DHT22;9817;50.80926400;5.16316200;2023-12-22T00:53:09;9.90;99.90
19363;DHT22;9817;50.80926400;5.16316200;2023-12-22T00:55:35;10.00;99.90
19363;DHT22;9817;50.80926400;5.16316200;2023-12-22T00:58:01;10.00;99.90
19363;DHT22;9817;50.80926400;5.16316200;2023-12-22T01:00:26;10.10;99.90
19363;DHT22;9817;50.80926400;5.16316200;2023-12-22T01:02:52;10.10;99.90
19363;DHT22;9817;50.80926400;5.16316200;2023-12-22T01:05:18;10.10;99.90
19363;DHT22;9817;50.80926400;5.16316200;2023-12-22T01:07:43;10.00;99.90
19363;DHT22;9817;50.80926400;5.16316200;2023-12-22T01:10:09;10.00;99.90
19363;DHT22;9817;50.80926400;5.16316200;2023-12-22T01:12:35;9.90;99.90
19363;DHT22;9817;50.80926400;5.16316200;2023-12-22T01:15:00;9.90;99.90
19363;DHT22;9817;50.80926400;5.16316200;2023-12-22T01:17:26;10.00;99.90
19363;DHT22;9817;50.80926400;5.16316200;2023-12-22T01:19:52;10.00;99.90
19363;DHT22;9817;50.80926400;5.16316200;2023-12-22T01:22:18;10.00;99.90
19363;DHT22;9817;50.80926400;5.16316200;2023-12-22T01:24:43;10.10;99.90
19363;DHT22;9817;50.80926400;5.16316200;2023-12-22T01:27:10;10.20;99.90
19363;DHT22;9817;50.80926400;5.16316200;2023-12-22T01:29:36;10.20;99.90
19363;DHT22;9817;50.80926400;5.16316200;2023-12-22T01:32:02;10.30;99.90
19363;DHT22;9817;50.80926400;5.16316200;2023-12-22T01:34:28;10.10;99.90
19363;DHT22;9817;50.80926400;5.16316200;2023-12-22T01:36:53;10.00;99.90
19363;DHT22;9817;50.80926400;5.16316200;2023-12-22T01:39:20;10.00;99.90
19363;DHT22;9817;50.80926400;5.16316200;2023-12-22T01:41:46;10.00;99.90
19363;DHT22;9817;50.80926400;5.16316200;2023-12-22T01:44:12;10.00;99.90
19363;DHT22;9817;50.80926400;5.16316200;2023-12-22T01:46:38;10.00;99.90
19363;DHT22;9817;50.80926400;5.16316200;2023-12-22T01:49:05;9.80;99.90
19363;DHT22;9817;50.80926400;5.16316200;2023-12-22T01:51:34;9.80;99.90
19363;DHT22;9817;50.80926400;5.16316200;2023-12-22T01:54:02;9.80;99.90
19363;DHT22;9817;50.80926400;5.16316200;2023-12-22T01:56:28;9.60;99.90
19363;DHT22;9817;50.80926400;5.16316200;2023-12-22T01:58:59;9.40;99.90
19363;DHT22;9817;50.80926400;5.16316200;2023-12-22T02:01:25;9.10;99.90
19363;DHT22;9817;50.80926400;5.16316200;2023-12-22T02:03:51;9.20;99.90
19363;DHT22;9817;50.80926400;5.16316200;2023-12-22T02:06:20;9.00;99.90
19363;DHT22;9817;50.80926400;5.16316200;2023-12-22T02:08:47;8.80;99.90
19363;DHT22;9817;50.80926400;5.16316200;2023-12-22T02:11:14;8.90;99.90
19363;DHT22;9817;50.80926400;5.16316200;2023-12-22T02:13:40;9.10;99.90
19363;DHT22;9817;50.80926400;5.16316200;2023-12-22T02:16:23;9.10;99.90
19363;DHT22;9817;50.80926400;5.16316200;2023-12-22T02:18:55;9.10;99.90
19363;DHT22;9817;50.80926400;5.16316200;2023-12-22T02:21:21;9.10;99.90
19363;DHT22;9817;50.80926400;5.16316200;2023-12-22T02:23:47;9.10;99.90
19363;DHT22;9817;50.80926400;5.16316200;2023-12-22T02:26:20;9.20;99.90
19363;DHT22;9817;50.80926400;5.16316200;2023-12-22T02:28:48;9.10;99.90
19363;DHT22;9817;50.80926400;5.16316200;2023-12-22T02:31:40;9.10;99.90
19363;DHT22;9817;50.80926400;5.16316200;2023-12-22T02:34:13;9.10;99.90
19363;DHT22;9817;50.80926400;5.16316200;2023-12-22T02:36:41;9.10;99.90
19363;DHT22;9817;50.80926400;5.16316200;2023-12-22T02:39:08;9.20;99.90
19363;DHT22;9817;50.80926400;5.16316200;2023-12-22T02:41:35;9.20;99.90
19363;DHT22;9817;50.80926400;5.16316200;2023-12-22T02:44:01;9.40;99.90
19363;DHT22;9817;50.80926400;5.16316200;2023-12-22T02:46:28;9.50;99.90
19363;DHT22;9817;50.80926400;5.16316200;2023-12-22T02:48:53;9.40;99.90
19363;DHT22;9817;50.80926400;5.16316200;2023-12-22T02:51:19;9.40;99.90
19363;DHT22;9817;50.80926400;5.16316200;2023-12-22T02:53:44;9.40;99.90
19363;DHT22;9817;50.80926400;5.16316200;2023-12-22T02:56:10;9.50;99.90
19363;DHT22;9817;50.80926400;5.16316200;2023-12-22T02:58:36;9.50;99.90
19363;DHT22;9817;50.80926400;5.16316200;2023-12-22T03:01:01;9.50;99.90
19363;DHT22;9817;50.80926400;5.16316200;2023-12-22T03:03:27;9.60;99.90
19363;DHT22;9817;50.80926400;5.16316200;2023-12-22T03:05:53;9.60;99.90
19363;DHT22;9817;50.80926400;5.16316200;2023-12-22T03:08:18;9.60;99.90
19363;DHT22;9817;50.80926400;5.16316200;2023-12-22T03:10:44;9.60;99.90
19363;DHT22;9817;50.80926400;5.16316200;2023-12-22T03:13:09;9.70;99.90
19363;DHT22;9817;50.80926400;5.16316200;2023-12-22T03:15:35;9.70;99.90
19363;DHT22;9817;50.80926400;5.16316200;2023-12-22T03:18:01;9.70;99.90
19363;DHT22;9817;50.80926400;5.16316200;2023-12-22T03:20:26;9.70;99.90
19363;DHT22;9817;50.80926400;5.16316200;2023-12-22T03:22:52;9.60;99.90
19363;DHT22;9817;50.80926400;5.16316200;2023-12-22T03:25:17;9.60;99.90
19363;DHT22;9817;50.80926400;5.16316200;2023-12-22T03:27:43;9.70;99.90
19363;DHT22;9817;50.80926400;5.16316200;2023-12-22T03:30:09;9.80;99.90
19363;DHT22;9817;50.80926400;5.16316200;2023-12-22T03:32:35;9.80;99.90
19363;DHT22;9817;50.80926400;5.16316200;2023-12-22T03:35:00;9.90;99.90
19363;DHT22;9817;50.80926400;5.16316200;2023-12-22T03:37:26;9.90;99.90
19363;DHT22;9817;50.80926400;5.16316200;2023-12-22T03:39:52;9.80;99.90
19363;DHT22;9817;50.80926400;5.16316200;2023-12-22T03:42:17;9.90;99.90
19363;DHT22;9817;50.80926400;5.16316200;2023-12-22T03:44:43;9.90;99.90
19363;DHT22;9817;50.80926400;5.16316200;2023-12-22T03:47:09;9.90;99.90
19363;DHT22;9817;50.80926400;5.16316200;2023-12-22T03:49:34;10.00;99.90
19363;DHT22;9817;50.80926400;5.16316200;2023-12-22T03:52:00;10.00;99.90
19363;DHT22;9817;50.80926400;5.16316200;2023-12-22T03:54:25;10.00;99.90
19363;DHT22;9817;50.80926400;5.16316200;2023-12-22T03:56:51;10.00;99.90
19363;DHT22;9817;50.80926400;5.16316200;2023-12-22T03:59:17;9.90;99.90
19363;DHT22;9817;50.80926400;5.16316200;2023-12-22T04:01:44;9.80;99.90
19363;DHT22;9817;50.80926400;5.16316200;2023-12-22T04:04:09;9.80;99.90
19363;DHT22;9817;50.80926400;5.16316200;2023-12-22T04:06:39;9.90;99.90
19363;DHT22;9817;50.80926400;5.16316200;2023-12-22T04:09:05;10.00;99.90
19363;DHT22;9817;50.80926400;5.16316200;2023-12-22T04:11:31;10.00;99.90
19363;DHT22;9817;50.80926400;5.16316200;2023-12-22T04:13:56;10.00;99.90
19363;DHT22;9817;50.80926400;5.16316200;2023-12-22T04:16:22;10.00;99.90
19363;DHT22;9817;50.80926400;5.16316200;2023-12-22T04:18:48;10.00;99.90
19363;DHT22;9817;50.80926400;5.16316200;2023-12-22T04:21:13;10.10;99.90
19363;DHT22;9817;50.80926400;5.16316200;2023-12-22T04:23:39;10.10;99.90
19363;DHT22;9817;50.80926400;5.16316200;2023-12-22T04:26:04;10.00;99.90
19363;DHT22;9817;50.80926400;5.16316200;2023-12-22T04:28:30;10.00;99.90
19363;DHT22;9817;50.80926400;5.16316200;2023-12-22T04:30:56;10.10;99.90
19363;DHT22;9817;50.80926400;5.16316200;2023-12-22T04:33:21;10.20;99.90
19363;DHT22;9817;50.80926400;5.16316200;2023-12-22T04:35:47;10.20;99.90
19363;DHT22;9817;50.80926400;5.16316200;2023-12-22T04:38:12;10.20;99.90
19363;DHT22;9817;50.80926400;5.16316200;2023-12-22T04:40:38;10.10;99.90
19363;DHT22;9817;50.80926400;5.16316200;2023-12-22T04:43:04;10.00;99.90
19363;DHT22;9817;50.80926400;5.16316200;2023-12-22T04:45:29;10.00;99.90
19363;DHT22;9817;50.80926400;5.16316200;2023-12-22T04:47:55;10.00;99.90
19363;DHT22;9817;50.80926400;5.16316200;2023-12-22T04:50:20;10.00;99.90
19363;DHT22;9817;50.80926400;5.16316200;2023-12-22T04:52:46;10.00;99.90
19363;DHT22;9817;50.80926400;5.16316200;2023-12-22T04:55:12;10.00;99.90
19363;DHT22;9817;50.80926400;5.16316200;2023-12-22T04:57:37;10.10;99.90
19363;DHT22;9817;50.80926400;5.16316200;2023-12-22T05:00:03;10.00;99.90
19363;DHT22;9817;50.80926400;5.16316200;2023-12-22T05:02:29;10.00;99.90
19363;DHT22;9817;50.80926400;5.16316200;2023-12-22T05:04:56;10.00;99.90
19363;DHT22;9817;50.80926400;5.16316200;2023-12-22T05:07:21;10.00;99.90
19363;DHT22;9817;50.80926400;5.16316200;2023-12-22T05:09:47;10.10;99.90
19363;DHT22;9817;50.80926400;5.16316200;2023-12-22T05:12:13;10.10;99.90
19363;DHT22;9817;50.80926400;5.16316200;2023-12-22T05:14:39;10.20;99.90
19363;DHT22;9817;50.80926400;5.16316200;2023-12-22T05:17:04;10.20;99.90
19363;DHT22;9817;50.80926400;5.16316200;2023-12-22T05:19:30;10.10;99.90
19363;DHT22;9817;50.80926400;5.16316200;2023-12-22T05:21:56;10.10;99.90
19363;DHT22;9817;50.80926400;5.16316200;2023-12-22T05:24:22;10.00;99.90
19363;DHT22;9817;50.80926400;5.16316200;2023-12-22T05:26:48;10.00;99.90
19363;DHT22;9817;50.80926400;5.16316200;2023-12-22T05:29:13;10.00;99.90
19363;DHT22;9817;50.80926400;5.16316200;2023-12-22T05:31:39;9.90;99.90
19363;DHT22;9817;50.80926400;5.16316200;2023-12-22T05:34:05;9.90;99.90
19363;DHT22;9817;50.80926400;5.16316200;2023-12-22T05:36:31;10.00;99.90
19363;DHT22;9817;50.80926400;5.16316200;2023-12-22T05:38:57;9.90;99.90
19363;DHT22;9817;50.80926400;5.16316200;2023-12-22T05:41:22;9.80;99.90
19363;DHT22;9817;50.80926400;5.16316200;2023-12-22T05:43:48;9.80;99.90
19363;DHT22;9817;50.80926400;5.16316200;2023-12-22T05:46:13;9.70;99.90
19363;DHT22;9817;50.80926400;5.16316200;2023-12-22T05:48:39;9.80;99.90
19363;DHT22;9817;50.80926400;5.16316200;2023-12-22T05:51:05;9.80;99.90
19363;DHT22;9817;50.80926400;5.16316200;2023-12-22T05:53:33;9.80;99.90
19363;DHT22;9817;50.80926400;5.16316200;2023-12-22T05:55:58;9.80;99.90
19363;DHT22;9817;50.80926400;5.16316200;2023-12-22T05:58:24;9.90;99.90
19363;DHT22;9817;50.80926400;5.16316200;2023-12-22T06:00:50;10.00;99.90
19363;DHT22;9817;50.80926400;5.16316200;2023-12-22T06:03:15;9.80;99.90
19363;DHT22;9817;50.80926400;5.16316200;2023-12-22T06:05:41;9.80;99.90
19363;DHT22;9817;50.80926400;5.16316200;2023-12-22T06:08:06;9.90;99.90
19363;DHT22;9817;50.80926400;5.16316200;2023-12-22T06:10:32;9.80;99.90
19363;DHT22;9817;50.80926400;5.16316200;2023-12-22T06:12:58;9.80;99.90
19363;DHT22;9817;50.80926400;5.16316200;2023-12-22T06:15:24;9.70;99.90
19363;DHT22;9817;50.80926400;5.16316200;2023-12-22T06:17:49;9.80;99.90
19363;DHT22;9817;50.80926400;5.16316200;2023-12-22T06:20:15;9.80;99.90
19363;DHT22;9817;50.80926400;5.16316200;2023-12-22T06:22:41;9.80;99.90
19363;DHT22;9817;50.80926400;5.16316200;2023-12-22T06:25:06;9.70;99.90
19363;DHT22;9817;50.80926400;5.16316200;2023-12-22T06:27:33;9.80;99.90
19363;DHT22;9817;50.80926400;5.16316200;2023-12-22T06:29:59;9.80;99.90
19363;DHT22;9817;50.80926400;5.16316200;2023-12-22T06:32:25;9.90;99.90
19363;DHT22;9817;50.80926400;5.16316200;2023-12-22T06:34:50;9.80;99.90
19363;DHT22;9817;50.80926400;5.16316200;2023-12-22T06:37:17;9.90;99.90
19363;DHT22;9817;50.80926400;5.16316200;2023-12-22T06:39:43;9.90;99.90
19363;DHT22;9817;50.80926400;5.16316200;2023-12-22T06:42:09;10.00;99.90
19363;DHT22;9817;50.80926400;5.16316200;2023-12-22T06:44:37;9.80;99.90
19363;DHT22;9817;50.80926400;5.16316200;2023-12-22T06:47:03;9.90;99.90
19363;DHT22;9817;50.80926400;5.16316200;2023-12-22T06:49:29;9.80;99.90
19363;DHT22;9817;50.80926400;5.16316200;2023-12-22T06:51:54;9.80;99.90
19363;DHT22;9817;50.80926400;5.16316200;2023-12-22T06:54:20;9.80;99.90
19363;DHT22;9817;50.80926400;5.16316200;2023-12-22T06:56:45;9.80;99.90
19363;DHT22;9817;50.80926400;5.16316200;2023-12-22T06:59:11;9.80;99.90
19363;DHT22;9817;50.80926400;5.16316200;2023-12-22T07:01:37;9.80;99.90
19363;DHT22;9817;50.80926400;5.16316200;2023-12-22T07:04:04;9.80;99.90
19363;DHT22;9817;50.80926400;5.16316200;2023-12-22T07:06:34;10.00;99.90
19363;DHT22;9817;50.80926400;5.16316200;2023-12-22T07:11:41;9.90;99.90
19363;DHT22;9817;50.80926400;5.16316200;2023-12-22T07:14:07;9.80;99.90
19363;DHT22;9817;50.80926400;5.16316200;2023-12-22T07:16:36;9.80;99.90
19363;DHT22;9817;50.80926400;5.16316200;2023-12-22T07:19:02;9.80;99.90
19363;DHT22;9817;50.80926400;5.16316200;2023-12-22T07:21:28;9.80;99.90
19363;DHT22;9817;50.80926400;5.16316200;2023-12-22T07:23:54;9.90;99.90
19363;DHT22;9817;50.80926400;5.16316200;2023-12-22T07:26:19;9.90;99.90
19363;DHT22;9817;50.80926400;5.16316200;2023-12-22T07:28:47;9.90;99.90
19363;DHT22;9817;50.80926400;5.16316200;2023-12-22T07:31:14;9.90;99.90
19363;DHT22;9817;50.80926400;5.16316200;2023-12-22T07:33:43;9.90;99.90
19363;DHT22;9817;50.80926400;5.16316200;2023-12-22T07:36:09;9.90;99.90
19363;DHT22;9817;50.80926400;5.16316200;2023-12-22T07:38:35;9.90;99.90
19363;DHT22;9817;50.80926400;5.16316200;2023-12-22T07:41:00;10.00;99.90
19363;DHT22;9817;50.80926400;5.16316200;2023-12-22T07:43:26;9.90;99.90
19363;DHT22;9817;50.80926400;5.16316200;2023-12-22T07:45:52;9.80;99.90
19363;DHT22;9817;50.80926400;5.16316200;2023-12-22T07:48:18;9.80;99.90
19363;DHT22;9817;50.80926400;5.16316200;2023-12-22T07:50:43;10.00;99.90
19363;DHT22;9817;50.80926400;5.16316200;2023-12-22T07:53:10;10.00;99.90
19363;DHT22;9817;50.80926400;5.16316200;2023-12-22T07:55:36;10.20;99.90
19363;DHT22;9817;50.80926400;5.16316200;2023-12-22T07:58:04;10.10;99.90
19363;DHT22;9817;50.80926400;5.16316200;2023-12-22T08:00:29;10.00;99.90
19363;DHT22;9817;50.80926400;5.16316200;2023-12-22T08:02:55;10.10;99.90
19363;DHT22;9817;50.80926400;5.16316200;2023-12-22T08:05:21;10.00;99.90
19363;DHT22;9817;50.80926400;5.16316200;2023-12-22T08:07:46;10.00;99.90
19363;DHT22;9817;50.80926400;5.16316200;2023-12-22T08:10:12;9.90;99.90
19363;DHT22;9817;50.80926400;5.16316200;2023-12-22T08:12:38;10.00;99.90
19363;DHT22;9817;50.80926400;5.16316200;2023-12-22T08:15:04;10.00;99.90
19363;DHT22;9817;50.80926400;5.16316200;2023-12-22T08:17:30;9.90;99.90
19363;DHT22;9817;50.80926400;5.16316200;2023-12-22T08:19:55;10.00;99.90
19363;DHT22;9817;50.80926400;5.16316200;2023-12-22T08:22:22;10.00;99.90
19363;DHT22;9817;50.80926400;5.16316200;2023-12-22T08:24:48;10.10;99.90
19363;DHT22;9817;50.80926400;5.16316200;2023-12-22T08:27:14;10.10;99.90
19363;DHT22;9817;50.80926400;5.16316200;2023-12-22T08:29:40;10.30;99.90
19363;DHT22;9817;50.80926400;5.16316200;2023-12-22T08:32:06;10.30;99.90
19363;DHT22;9817;50.80926400;5.16316200;2023-12-22T08:34:31;10.20;99.90
19363;DHT22;9817;50.80926400;5.16316200;2023-12-22T08:36:57;10.20;99.90
19363;DHT22;9817;50.80926400;5.16316200;2023-12-22T08:39:23;10.30;99.90
19363;DHT22;9817;50.80926400;5.16316200;2023-12-22T08:41:52;10.20;99.90
19363;DHT22;9817;50.80926400;5.16316200;2023-12-22T08:44:18;10.20;99.90
19363;DHT22;9817;50.80926400;5.16316200;2023-12-22T08:46:44;10.10;99.90
19363;DHT22;9817;50.80926400;5.16316200;2023-12-22T08:49:10;10.20;99.90
19363;DHT22;9817;50.80926400;5.16316200;2023-12-22T08:51:36;10.10;99.90
19363;DHT22;9817;50.80926400;5.16316200;2023-12-22T08:54:02;10.10;99.90
19363;DHT22;9817;50.80926400;5.16316200;2023-12-22T08:56:29;10.20;99.90
19363;DHT22;9817;50.80926400;5.16316200;2023-12-22T08:58:55;10.20;99.90
19363;DHT22;9817;50.80926400;5.16316200;2023-12-22T09:01:21;10.10;99.90
19363;DHT22;9817;50.80926400;5.16316200;2023-12-22T09:03:47;9.90;99.90
19363;DHT22;9817;50.80926400;5.16316200;2023-12-22T09:06:21;9.90;99.90
19363;DHT22;9817;50.80926400;5.16316200;2023-12-22T09:08:48;9.90;99.90
19363;DHT22;9817;50.80926400;5.16316200;2023-12-22T09:11:16;9.90;99.90
19363;DHT22;9817;50.80926400;5.16316200;2023-12-22T09:13:42;10.00;99.90
19363;DHT22;9817;50.80926400;5.16316200;2023-12-22T09:16:09;10.20;99.90
19363;DHT22;9817;50.80926400;5.16316200;2023-12-22T09:18:35;10.20;99.90
19363;DHT22;9817;50.80926400;5.16316200;2023-12-22T09:21:01;10.30;99.90
19363;DHT22;9817;50.80926400;5.16316200;2023-12-22T09:23:28;10.40;99.90
19363;DHT22;9817;50.80926400;5.16316200;2023-12-22T09:25:54;10.30;99.90
19363;DHT22;9817;50.80926400;5.16316200;2023-12-22T09:28:19;10.30;99.90
19363;DHT22;9817;50.80926400;5.16316200;2023-12-22T09:30:45;10.30;99.90
19363;DHT22;9817;50.80926400;5.16316200;2023-12-22T09:33:11;10.60;99.90
19363;DHT22;9817;50.80926400;5.16316200;2023-12-22T09:35:37;10.60;99.90
19363;DHT22;9817;50.80926400;5.16316200;2023-12-22T09:38:03;10.60;99.90
19363;DHT22;9817;50.80926400;5.16316200;2023-12-22T09:40:28;10.50;99.90
19363;DHT22;9817;50.80926400;5.16316200;2023-12-22T09:42:55;10.60;99.90
19363;DHT22;9817;50.80926400;5.16316200;2023-12-22T09:45:21;10.60;99.90
19363;DHT22;9817;50.80926400;5.16316200;2023-12-22T09:47:48;10.60;99.90
19363;DHT22;9817;50.80926400;5.16316200;2023-12-22T09:50:15;10.60;99.90
19363;DHT22;9817;50.80926400;5.16316200;2023-12-22T09:52:43;10.70;99.90
19363;DHT22;9817;50.80926400;5.16316200;2023-12-22T09:55:13;10.80;99.90
19363;DHT22;9817;50.80926400;5.16316200;2023-12-22T09:57:39;10.90;99.90
19363;DHT22;9817;50.80926400;5.16316200;2023-12-22T10:00:11;10.80;99.90
19363;DHT22;9817;50.80926400;5.16316200;2023-12-22T10:02:39;10.90;99.90
19363;DHT22;9817;50.80926400;5.16316200;2023-12-22T10:05:05;11.00;99.90
19363;DHT22;9817;50.80926400;5.16316200;2023-12-22T10:07:31;10.90;99.90
19363;DHT22;9817;50.80926400;5.16316200;2023-12-22T10:09:57;10.90;99.90
19363;DHT22;9817;50.80926400;5.16316200;2023-12-22T10:12:29;10.80;99.90
19363;DHT22;9817;50.80926400;5.16316200;2023-12-22T10:14:56;10.70;99.90
19363;DHT22;9817;50.80926400;5.16316200;2023-12-22T10:17:22;10.60;99.90
19363;DHT22;9817;50.80926400;5.16316200;2023-12-22T10:19:48;10.80;99.90
19363;DHT22;9817;50.80926400;5.16316200;2023-12-22T10:22:14;10.80;99.90
19363;DHT22;9817;50.80926400;5.16316200;2023-12-22T10:24:40;10.90;99.90
19363;DHT22;9817;50.80926400;5.16316200;2023-12-22T10:27:12;11.10;99.90
19363;DHT22;9817;50.80926400;5.16316200;2023-12-22T10:29:38;10.90;99.90
19363;DHT22;9817;50.80926400;5.16316200;2023-12-22T10:32:06;10.90;99.90
19363;DHT22;9817;50.80926400;5.16316200;2023-12-22T10:34:32;11.00;99.90
19363;DHT22;9817;50.80926400;5.16316200;2023-12-22T10:36:59;10.90;99.90
19363;DHT22;9817;50.80926400;5.16316200;2023-12-22T10:39:30;10.80;99.90
19363;DHT22;9817;50.80926400;5.16316200;2023-12-22T10:41:56;10.90;99.90
19363;DHT22;9817;50.80926400;5.16316200;2023-12-22T10:44:26;11.00;99.90
19363;DHT22;9817;50.80926400;5.16316200;2023-12-22T10:46:52;11.00;99.90
19363;DHT22;9817;50.80926400;5.16316200;2023-12-22T10:49:22;10.90;99.90
19363;DHT22;9817;50.80926400;5.16316200;2023-12-22T10:51:49;11.00;99.90
19363;DHT22;9817;50.80926400;5.16316200;2023-12-22T10:54:14;11.00;99.90
19363;DHT22;9817;50.80926400;5.16316200;2023-12-22T10:56:41;11.10;99.90
19363;DHT22;9817;50.80926400;5.16316200;2023-12-22T10:59:08;11.20;99.90
19363;DHT22;9817;50.80926400;5.16316200;2023-12-22T11:01:35;11.20;99.90
19363;DHT22;9817;50.80926400;5.16316200;2023-12-22T11:04:14;11.10;99.90
19363;DHT22;9817;50.80926400;5.16316200;2023-12-22T11:06:44;11.10;99.90
19363;DHT22;9817;50.80926400;5.16316200;2023-12-22T11:09:10;11.10;99.90
19363;DHT22;9817;50.80926400;5.16316200;2023-12-22T11:11:38;11.20;99.90
19363;DHT22;9817;50.80926400;5.16316200;2023-12-22T11:14:04;11.20;99.90
19363;DHT22;9817;50.80926400;5.16316200;2023-12-22T11:16:32;11.20;99.90
19363;DHT22;9817;50.80926400;5.16316200;2023-12-22T11:18:59;11.10;99.90
19363;DHT22;9817;50.80926400;5.16316200;2023-12-22T11:21:25;11.10;99.90
19363;DHT22;9817;50.80926400;5.16316200;2023-12-22T11:23:52;11.30;99.90
19363;DHT22;9817;50.80926400;5.16316200;2023-12-22T11:26:20;11.40;99.90
19363;DHT22;9817;50.80926400;5.16316200;2023-12-22T11:28:48;11.30;99.90
19363;DHT22;9817;50.80926400;5.16316200;2023-12-22T11:31:14;11.30;99.90
19363;DHT22;9817;50.80926400;5.16316200;2023-12-22T11:33:44;11.30;99.90
19363;DHT22;9817;50.80926400;5.16316200;2023-12-22T11:36:12;11.30;99.90
19363;DHT22;9817;50.80926400;5.16316200;2023-12-22T11:38:37;11.30;99.90
19363;DHT22;9817;50.80926400;5.16316200;2023-12-22T11:41:04;11.30;99.90
19363;DHT22;9817;50.80926400;5.16316200;2023-12-22T11:43:31;11.30;99.90
19363;DHT22;9817;50.80926400;5.16316200;2023-12-22T11:46:02;11.30;99.90
19363;DHT22;9817;50.80926400;5.16316200;2023-12-22T11:48:29;11.30;99.90
19363;DHT22;9817;50.80926400;5.16316200;2023-12-22T11:50:55;11.20;99.90
19363;DHT22;9817;50.80926400;5.16316200;2023-12-22T11:53:22;11.30;99.90
19363;DHT22;9817;50.80926400;5.16316200;2023-12-22T11:56:08;11.30;99.90
19363;DHT22;9817;50.80926400;5.16316200;2023-12-22T11:58:44;11.40;99.90
19363;DHT22;9817;50.80926400;5.16316200;2023-12-22T12:01:25;11.40;99.90
19363;DHT22;9817;50.80926400;5.16316200;2023-12-22T12:03:58;11.50;99.90
19363;DHT22;9817;50.80926400;5.16316200;2023-12-22T12:09:00;11.40;99.90
19363;DHT22;9817;50.80926400;5.16316200;2023-12-22T12:14:32;11.30;99.90
19363;DHT22;9817;50.80926400;5.16316200;2023-12-22T12:17:08;11.30;99.90
19363;DHT22;9817;50.80926400;5.16316200;2023-12-22T12:19:35;11.40;99.90
19363;DHT22;9817;50.80926400;5.16316200;2023-12-22T12:22:02;11.30;99.90
19363;DHT22;9817;50.80926400;5.16316200;2023-12-22T12:24:28;11.30;99.90
19363;DHT22;9817;50.80926400;5.16316200;2023-12-22T12:26:54;11.40;99.90
19363;DHT22;9817;50.80926400;5.16316200;2023-12-22T12:29:22;11.30;99.90
19363;DHT22;9817;50.80926400;5.16316200;2023-12-22T12:31:47;11.20;99.90
19363;DHT22;9817;50.80926400;5.16316200;2023-12-22T12:34:13;11.10;99.90
19363;DHT22;9817;50.80926400;5.16316200;2023-12-22T12:36:41;11.10;99.90
19363;DHT22;9817;50.80926400;5.16316200;2023-12-22T12:39:08;11.20;99.90
19363;DHT22;9817;50.80926400;5.16316200;2023-12-22T12:41:43;11.30;99.90
19363;DHT22;9817;50.80926400;5.16316200;2023-12-22T12:44:12;11.40;99.90
19363;DHT22;9817;50.80926400;5.16316200;2023-12-22T12:46:39;11.40;99.90
19363;DHT22;9817;50.80926400;5.16316200;2023-12-22T12:49:06;11.40;99.90
19363;DHT22;9817;50.80926400;5.16316200;2023-12-22T12:51:39;11.50;99.90
19363;DHT22;9817;50.80926400;5.16316200;2023-12-22T12:54:10;11.60;99.90
19363;DHT22;9817;50.80926400;5.16316200;2023-12-22T12:56:40;11.70;99.90
19363;DHT22;9817;50.80926400;5.16316200;2023-12-22T13:01:42;11.80;99.90
19363;DHT22;9817;50.80926400;5.16316200;2023-12-22T13:04:07;11.70;99.90
19363;DHT22;9817;50.80926400;5.16316200;2023-12-22T13:06:33;11.70;99.90
19363;DHT22;9817;50.80926400;5.16316200;2023-12-22T13:08:59;11.60;99.90
19363;DHT22;9817;50.80926400;5.16316200;2023-12-22T13:11:27;11.60;99.90
19363;DHT22;9817;50.80926400;5.16316200;2023-12-22T13:13:53;11.60;99.90
19363;DHT22;9817;50.80926400;5.16316200;2023-12-22T13:16:20;11.60;99.90
19363;DHT22;9817;50.80926400;5.16316200;2023-12-22T13:18:46;11.50;99.90
19363;DHT22;9817;50.80926400;5.16316200;2023-12-22T13:21:13;11.60;99.90
19363;DHT22;9817;50.80926400;5.16316200;2023-12-22T13:23:39;11.60;99.90
19363;DHT22;9817;50.80926400;5.16316200;2023-12-22T13:26:05;11.60;99.90
19363;DHT22;9817;50.80926400;5.16316200;2023-12-22T13:28:30;11.50;99.90
19363;DHT22;9817;50.80926400;5.16316200;2023-12-22T13:30:56;11.40;99.90
19363;DHT22;9817;50.80926400;5.16316200;2023-12-22T13:33:22;11.60;99.90
19363;DHT22;9817;50.80926400;5.16316200;2023-12-22T13:35:56;11.60;99.90
19363;DHT22;9817;50.80926400;5.16316200;2023-12-22T13:38:23;11.50;99.90
19363;DHT22;9817;50.80926400;5.16316200;2023-12-22T13:40:48;11.50;99.90
19363;DHT22;9817;50.80926400;5.16316200;2023-12-22T13:43:14;11.50;99.90
19363;DHT22;9817;50.80926400;5.16316200;2023-12-22T13:45:40;11.40;99.90
19363;DHT22;9817;50.80926400;5.16316200;2023-12-22T13:48:07;11.30;99.90